createdAt,value
2022-10-22T16:59:59.731Z,2.23
2022-10-22T17:03:03.555Z,2.53
2022-10-22T17:06:08.056Z,2.47
2022-10-22T17:09:12.034Z,2.40
2022-10-22T17:12:16.140Z,2.30
2022-10-22T17:15:21.224Z,2.60
2022-10-22T17:18:25.323Z,2.53
2022-10-22T17:21:28.935Z,4.40
2022-10-22T17:24:32.963Z,3.50
2022-10-22T17:27:36.875Z,3.70
2022-10-22T17:30:42.020Z,3.47
2022-10-22T17:33:46.442Z,3.30
2022-10-22T17:36:50.167Z,3.20
2022-10-22T17:39:53.866Z,2.80
2022-10-22T17:42:57.792Z,3.13
2022-10-22T17:46:11.887Z,2.90
2022-10-22T17:49:18.236Z,2.93
2022-10-22T17:52:21.875Z,3.60
2022-10-22T17:55:25.540Z,3.20
2022-10-22T17:58:30.779Z,2.83
2022-10-22T18:01:40.244Z,3.20
2022-10-22T18:04:43.876Z,2.83
2022-10-22T18:07:47.484Z,2.83
2022-10-22T18:10:51.126Z,2.70
2022-10-22T18:13:56.617Z,2.80
2022-10-22T18:17:03.032Z,2.83
2022-10-22T18:20:07.860Z,3.50
2022-10-22T18:23:13.545Z,3.63
2022-10-22T18:26:20.342Z,3.40
2022-10-22T18:29:26.705Z,3.53
2022-10-22T18:32:33.984Z,3.23
2022-10-22T18:35:37.603Z,3.00
2022-10-22T18:38:41.461Z,3.33
2022-10-22T18:41:45.083Z,3.40
2022-10-22T18:44:48.680Z,3.23
2022-10-22T18:47:54.700Z,3.23
2022-10-22T18:51:03.175Z,3.00
2022-10-22T18:54:22.200Z,3.27
2022-10-22T18:57:28.103Z,3.33
2022-10-22T19:00:31.768Z,3.53
2022-10-22T19:03:36.923Z,3.40
2022-10-22T19:06:45.101Z,3.40
2022-10-22T19:09:49.392Z,3.30
2022-10-22T19:12:52.988Z,3.50
2022-10-22T19:16:03.070Z,3.30
2022-10-22T19:19:09.042Z,3.50
2022-10-22T19:22:12.920Z,3.40
2022-10-22T19:25:16.700Z,3.80
2022-10-22T19:28:20.355Z,3.90
2022-10-22T19:31:26.052Z,3.70
2022-10-22T19:34:31.166Z,3.30
2022-10-22T19:37:37.070Z,3.40
2022-10-22T19:40:42.180Z,5.90
2022-10-22T19:43:49.385Z,5.60
2022-10-22T19:46:53.335Z,5.50
2022-10-22T19:49:58.511Z,4.17
2022-10-22T19:53:02.143Z,3.97
2022-10-22T19:56:07.869Z,4.03
2022-10-22T19:59:12.525Z,3.80
2022-10-22T20:02:17.775Z,3.83
2022-10-22T20:08:32.152Z,3.30
2022-10-22T20:11:35.776Z,3.80
2022-10-22T20:14:40.764Z,4.10
2022-10-22T20:17:44.741Z,4.00
2022-10-22T20:20:50.236Z,3.73
2022-10-22T20:23:56.634Z,3.67
2022-10-22T20:27:05.571Z,3.50
2022-10-22T20:30:10.757Z,3.50
2022-10-22T20:33:14.928Z,4.10
2022-10-22T20:36:22.036Z,3.87
2022-10-22T20:39:25.721Z,3.97
2022-10-22T20:42:29.386Z,4.13
2022-10-22T20:45:33.238Z,3.87
2022-10-22T20:48:39.216Z,4.13
2022-10-22T20:51:44.711Z,4.57
2022-10-22T20:54:48.569Z,3.90
2022-10-22T20:57:52.337Z,4.70
2022-10-22T21:00:56.475Z,4.50
2022-10-22T21:04:00.118Z,4.17
2022-10-22T21:07:05.211Z,4.03
2022-10-22T21:10:09.701Z,4.00
2022-10-22T21:13:13.696Z,3.67
2022-10-22T21:16:19.906Z,3.93
2022-10-22T21:19:24.216Z,3.90
2022-10-22T21:22:29.283Z,3.87
2022-10-22T21:25:32.926Z,4.17
2022-10-22T21:28:37.922Z,3.80
2022-10-22T21:31:41.659Z,3.60
2022-10-22T21:34:45.230Z,3.67
2022-10-22T21:37:50.254Z,3.90
2022-10-22T21:40:53.963Z,4.33
2022-10-22T21:43:57.669Z,4.30
2022-10-22T21:47:01.267Z,3.97
2022-10-22T21:50:05.165Z,4.10
2022-10-22T21:53:10.631Z,4.43
2022-10-22T21:56:16.204Z,4.47
2022-10-22T21:59:20.221Z,4.00
2022-10-22T22:02:23.959Z,3.90
2022-10-22T22:05:27.830Z,4.20
2022-10-22T22:08:33.497Z,4.10
2022-10-22T22:11:37.122Z,4.43
2022-10-22T22:14:41.275Z,4.23
2022-10-22T22:17:45.021Z,4.47
2022-10-22T22:20:48.683Z,4.23
2022-10-22T22:23:53.688Z,4.17
2022-10-22T22:26:57.388Z,4.23
2022-10-22T22:30:01.052Z,3.50
2022-10-22T22:33:05.076Z,4.43
2022-10-22T22:36:09.816Z,4.50
2022-10-22T22:39:17.064Z,3.87
2022-10-22T22:42:20.725Z,4.00
2022-10-22T22:45:24.387Z,3.77
2022-10-22T22:48:28.360Z,3.93
2022-10-22T22:51:32.107Z,3.67
2022-10-22T22:54:37.111Z,4.20
2022-10-22T22:57:40.670Z,4.23
2022-10-22T23:00:44.394Z,3.97
2022-10-22T23:03:53.266Z,3.77
2022-10-22T23:06:57.010Z,3.90
2022-10-22T23:10:01.988Z,3.90
2022-10-22T23:13:05.645Z,4.07
2022-10-22T23:16:13.328Z,4.03
2022-10-22T23:19:19.648Z,4.03
2022-10-22T23:22:23.278Z,3.80
2022-10-22T23:25:28.728Z,4.23
2022-10-22T23:28:32.494Z,3.60
2022-10-22T23:31:36.219Z,4.23
2022-10-22T23:34:39.927Z,4.13
2022-10-22T23:37:43.753Z,4.43
2022-10-22T23:40:55.213Z,3.70
